| time (UTC) | temp F | wind direction | speed MPH | gust MPH | rain 1hr in | rain 24hr in | rain mn in | humidity % | barometer mb |
| 20260508020031 | 28 | 245 | 15.0 | 25.0 | 0.00 | 0.20 | 0.07 | 83 | 1002.9 |
| 20260508014531 | 28 | 271 | 19.0 | 29.0 | 0.00 | 0.24 | 0.07 | 83 | 1002.7 |
| 20260508013037 | 29 | 293 | 21.0 | 31.0 | 0.00 | 0.24 | 0.07 | 82 | 1002.6 |
| 20260508011541 | 29 | 269 | 18.0 | 26.0 | 0.00 | 0.24 | 0.07 | 82 | 1003.1 |
| 20260508010035 | 29 | 245 | 17.0 | 25.0 | 0.00 | 0.24 | 0.07 | 82 | 1002.9 |
| 20260508004533 | 29 | 271 | 20.0 | 29.0 | 0.00 | 0.26 | 0.07 | 82 | 1002.8 |
| 20260508003032 | 28 | 245 | 19.0 | 25.0 | 0.00 | 0.26 | 0.07 | 82 | 1002.7 |
| 20260508001533 | 29 | 269 | 14.0 | 26.0 | 0.00 | 0.26 | 0.07 | 81 | 1003.0 |
| 20260508000032 | 30 | 359 | 16.0 | 28.0 | 0.00 | 0.26 | 0.07 | 79 | 1002.8 |
| 20260507234529 | 30 | 245 | 19.0 | 29.0 | 0.00 | 0.38 | 0.07 | 77 | 1002.7 |
| 20260507233035 | 31 | 245 | 21.0 | 31.0 | 0.00 | 0.38 | 0.07 | 76 | 1002.2 |
| 20260507231539 | 31 | 245 | 20.0 | 35.0 | 0.00 | 0.38 | 0.07 | 75 | 1002.3 |
| 20260507230033 | 31 | 245 | 20.0 | 33.0 | 0.00 | 0.38 | 0.07 | 76 | 1002.2 |
| 20260507224531 | 32 | 245 | 18.0 | 31.0 | 0.00 | 0.41 | 0.07 | 76 | 1002.1 |
| 20260507223031 | 32 | 245 | 21.0 | 37.0 | 0.00 | 0.41 | 0.07 | 75 | 1002.2 |
| 20260507221535 | 32 | 266 | 22.0 | 32.0 | 0.00 | 0.41 | 0.07 | 76 | 1002.3 |
| 20260507220033 | 33 | 273 | 20.0 | 34.0 | 0.00 | 0.41 | 0.07 | 80 | 1001.9 |
| 20260507214532 | 33 | 245 | 20.0 | 34.0 | 0.00 | 0.43 | 0.07 | 86 | 1002.2 |
| 20260507213032 | 33 | 256 | 20.0 | 31.0 | 0.00 | 0.43 | 0.07 | 95 | 1002.3 |
| 20260507211533 | 33 | 343 | 15.0 | 24.0 | 0.00 | 0.43 | 0.07 | 97 | 1002.2 |
| 20260507210031 | 33 | 245 | 19.0 | 29.0 | 0.00 | 0.43 | 0.07 | 96 | 1002.1 |
| 20260507204532 | 33 | 245 | 18.0 | 31.0 | 0.00 | 0.47 | 0.07 | 97 | 1002.1 |
| 20260507203033 | 32 | 310 | 17.0 | 29.0 | 0.00 | 0.47 | 0.07 | 97 | 1001.8 |
| 20260507201537 | 33 | 235 | 17.0 | 30.0 | 0.00 | 0.47 | 0.07 | 97 | 1001.8 |
| 20260507200044 | 35 | 245 | 18.0 | 33.0 | 0.00 | 0.47 | 0.07 | 97 | 1001.7 |
| 20260507194532 | 35 | 308 | 18.0 | 27.0 | 0.00 | 0.52 | 0.07 | 97 | 1001.7 |
| 20260507193033 | 35 | 272 | 17.0 | 30.0 | 0.00 | 0.52 | 0.07 | 98 | 1001.8 |
| 20260507191531 | 34 | 245 | 19.0 | 30.0 | 0.00 | 0.52 | 0.07 | 99 | 1001.6 |
| 20260507190033 | 35 | 245 | 17.0 | 28.0 | 0.00 | 0.52 | 0.07 | 99 | 1002.0 |
| 20260507184531 | 35 | 245 | 16.0 | 31.0 | 0.00 | 0.64 | 0.07 | 99 | 1001.9 |
| 20260507183038 | 36 | 302 | 16.0 | 23.0 | 0.01 | 0.64 | 0.07 | 99 | 1002.0 |
| 20260507181531 | 36 | 245 | 13.0 | 24.0 | 0.03 | 0.64 | 0.07 | 99 | 1002.1 |
| 20260507180039 | 35 | 245 | 13.0 | 23.0 | 0.05 | 0.64 | 0.07 | 99 | 1002.1 |
| 20260507174534 | 36 | 275 | 14.0 | 23.0 | 0.05 | 0.78 | 0.07 | 99 | 1002.2 |
| 20260507173034 | 36 | 271 | 13.0 | 22.0 | 0.04 | 0.77 | 0.06 | 99 | 1002.2 |
| 20260507171542 | 34 | 277 | 14.0 | 23.0 | 0.01 | 0.74 | 0.03 | 99 | 1002.3 |
| 20260507170032 | 34 | 245 | 11.0 | 18.0 | 0.00 | 0.73 | 0.02 | 99 | 1002.4 |
| 20260507164536 | 33 | 245 | 9.0 | 14.0 | 0.00 | 0.76 | 0.02 | 99 | 1002.9 |
| 20260507163031 | 33 | 245 | 11.0 | 18.0 | 0.00 | 0.76 | 0.02 | 99 | 1002.7 |
| 20260507161540 | 34 | 240 | 11.0 | 17.0 | 0.00 | 0.76 | 0.02 | 99 | 1002.8 |
| 20260507160036 | 34 | 245 | 11.0 | 16.0 | 0.00 | 0.76 | 0.02 | 99 | 1003.0 |
| 20260507154536 | 34 | 245 | 9.0 | 13.0 | 0.00 | 0.77 | 0.02 | 99 | 1003.0 |
| 20260507153031 | 34 | 245 | 6.0 | 15.0 | 0.00 | 0.77 | 0.02 | 99 | 1003.2 |
| 20260507151556 | 35 | 205 | 9.0 | 17.0 | 0.00 | 0.77 | 0.02 | 99 | 1003.3 |
| 20260507150032 | 34 | 245 | 7.0 | 16.0 | 0.00 | 0.77 | 0.02 | 99 | 1003.3 |
| 20260507144534 | 33 | 245 | 9.0 | 16.0 | 0.00 | 0.81 | 0.02 | 99 | 1003.2 |
| 20260507143030 | 32 | 245 | 8.0 | 16.0 | 0.01 | 0.81 | 0.02 | 99 | 1003.2 |
| 20260507141530 | 32 | 255 | 12.0 | 18.0 | 0.01 | 0.81 | 0.02 | 99 | 1003.2 |
| 20260507140034 | 32 | 298 | 11.0 | 18.0 | 0.01 | 0.81 | 0.02 | 99 | 1003.3 |
| 20260507134542 | 32 | 245 | 11.0 | 17.0 | 0.01 | 0.82 | 0.02 | 99 | 1003.2 |
| 20260507133031 | 32 | 0 | 0.0 | 0.0 | 0.00 | 0.81 | 0.01 | 99 | 1003.2 |
| 20260507131537 | 32 | 0 | 0.0 | 0.0 | 0.00 | 0.81 | 0.01 | 99 | 1003.3 |
| 20260507130033 | 32 | 0 | 0.0 | 0.0 | 0.00 | 0.81 | 0.01 | 99 | 1003.1 |
| 20260507124533 | 32 | 0 | 0.0 | 0.0 | 0.00 | 0.81 | 0.01 | 99 | 1003.3 |
| 20260507123036 | 31 | 0 | 0.0 | 0.0 | 0.00 | 0.81 | 0.01 | 99 | 1003.0 |
| 20260507121532 | 31 | 0 | 0.0 | 0.0 | 0.00 | 0.81 | 0.01 | 99 | 1003.0 |
| 20260507120032 | 31 | 0 | 0.0 | 0.0 | 0.00 | 0.81 | 0.01 | 99 | 1003.0 |
| 20260507114535 | 30 | 0 | 0.0 | 0.0 | 0.00 | 0.81 | 0.01 | 99 | 1003.1 |
| 20260507113030 | 30 | 0 | 0.0 | 0.0 | 0.00 | 0.81 | 0.01 | 99 | 1003.3 |
| 20260507111532 | 30 | 0 | 0.0 | 0.0 | 0.00 | 0.81 | 0.01 | 99 | 1003.4 |
| 20260507110046 | 30 | 0 | 0.0 | 0.0 | 0.00 | 0.81 | 0.01 | 99 | 1003.1 |
| 20260507104532 | 30 | 0 | 0.0 | 0.0 | 0.00 | 0.81 | 0.01 | 99 | 1003.3 |
| 20260507103031 | 30 | 0 | 0.0 | 0.0 | 0.00 | 0.81 | 0.01 | 99 | 1002.8 |
| 20260507101540 | 30 | 0 | 4.0 | 17.0 | 0.00 | 0.81 | 0.01 | 99 | 1002.6 |
| 20260507100035 | 29 | 245 | 11.0 | 18.0 | 0.00 | 0.81 | 0.01 | 99 | 1002.4 |
| 20260507094532 | 29 | 245 | 11.0 | 20.0 | 0.00 | 0.81 | 0.01 | 99 | 1002.6 |
| 20260507093033 | 29 | 245 | 12.0 | 19.0 | 0.00 | 0.81 | 0.01 | 99 | 1002.1 |
| 20260507091537 | 29 | 283 | 13.0 | 19.0 | 0.00 | 0.81 | 0.01 | 99 | 1001.9 |
| 20260507090039 | 29 | 309 | 15.0 | 23.0 | 0.00 | 0.81 | 0.01 | 99 | 1001.7 |
| 20260507084537 | 29 | 314 | 17.0 | 24.0 | 0.00 | 0.81 | 0.01 | 99 | 1001.5 |
| 20260507083037 | 29 | 245 | 15.0 | 22.0 | 0.00 | 0.81 | 0.01 | 99 | 1002.3 |
| 20260507081534 | 29 | 245 | 15.0 | 21.0 | 0.00 | 0.81 | 0.01 | 99 | 1002.5 |
| 20260507080033 | 29 | 245 | 16.0 | 23.0 | 0.00 | 0.81 | 0.01 | 99 | 1001.6 |
| 20260507074542 | 30 | 298 | 17.0 | 26.0 | 0.00 | 0.83 | 0.01 | 99 | 1001.6 |
| 20260507073033 | 30 | 335 | 15.0 | 21.0 | 0.00 | 0.83 | 0.01 | 99 | 1001.2 |
| 20260507071532 | 30 | 245 | 15.0 | 24.0 | 0.00 | 0.83 | 0.01 | 99 | 1002.1 |
| 20260507070034 | 31 | 293 | 18.0 | 25.0 | 0.00 | 0.83 | 0.01 | 99 | 1001.0 |
| 20260507064536 | 31 | 245 | 17.0 | 29.0 | 0.00 | 0.84 | 0.01 | 99 | 1001.5 |
| 20260507063035 | 31 | 245 | 17.0 | 27.0 | 0.00 | 0.84 | 0.01 | 99 | 1001.1 |
| 20260507061530 | 31 | 298 | 20.0 | 34.0 | 0.00 | 0.84 | 0.01 | 99 | 1001.5 |
| 20260507060031 | 32 | 245 | 19.0 | 30.0 | 0.00 | 0.84 | 0.01 | 99 | 1001.5 |
| 20260507054533 | 32 | 245 | 21.0 | 28.0 | 0.00 | 0.85 | 0.01 | 99 | 1001.2 |
| 20260507053033 | 32 | 289 | 18.0 | 26.0 | 0.00 | 0.85 | 0.01 | 99 | 1001.6 |
| 20260507051538 | 32 | 245 | 17.0 | 25.0 | 0.01 | 0.85 | 0.01 | 99 | 1001.9 |
| 20260507050039 | 33 | 329 | 15.0 | 25.0 | 0.01 | 0.85 | 0.01 | 99 | 1001.8 |
| 20260507044532 | 33 | 303 | 18.0 | 29.0 | 0.01 | 0.85 | 0.01 | 99 | 1001.8 |
| 20260507043030 | 34 | 330 | 15.0 | 24.0 | 0.02 | 0.85 | 0.01 | 99 | 1002.1 |
| 20260507041532 | 34 | 296 | 18.0 | 32.0 | 0.03 | 0.84 | 0.00 | 99 | 1002.5 |
| 20260507040033 | 34 | 245 | 22.0 | 31.0 | 0.03 | 0.84 | 0.00 | 99 | 1002.7 |
| 20260507034550 | 34 | 245 | 17.0 | 29.0 | 0.06 | 0.84 | 0.84 | 99 | 1002.9 |
| 20260507033036 | 35 | 321 | 21.0 | 30.0 | 0.06 | 0.83 | 0.83 | 99 | 1003.0 |
| 20260507031531 | 35 | 245 | 19.0 | 28.0 | 0.06 | 0.81 | 0.81 | 99 | 1003.0 |
| 20260507030030 | 35 | 245 | 17.0 | 26.0 | 0.09 | 0.81 | 0.81 | 99 | 1003.1 |
| 20260507024546 | 36 | 262 | 18.0 | 25.0 | 0.10 | 0.78 | 0.78 | 99 | 1003.3 |
| 20260507023029 | 37 | 245 | 13.0 | 18.0 | 0.10 | 0.77 | 0.77 | 99 | 1003.2 |
| 20260507021537 | 38 | 245 | 9.0 | 15.0 | 0.08 | 0.75 | 0.75 | 99 | 1003.4 |